sensor_id;sensor_type;location;lat;lon;timestamp;pressure;altitude;pressure_sealevel;temperature;humidity
84143;BME280;74260;50.772;7.730;2023-11-21T00:00:21;98168.91;;;8.43;98.54
84143;BME280;74260;50.772;7.730;2023-11-21T00:00:51;98168.78;;;8.42;98.60
84143;BME280;74260;50.772;7.730;2023-11-21T00:01:21;98172.38;;;8.44;98.51
84143;BME280;74260;50.772;7.730;2023-11-21T00:01:52;98166.97;;;8.41;98.55
84143;BME280;74260;50.772;7.730;2023-11-21T00:02:22;98169.66;;;8.42;98.46
84143;BME280;74260;50.772;7.730;2023-11-21T00:02:53;98169.53;;;8.41;98.77
84143;BME280;74260;50.772;7.730;2023-11-21T00:03:23;98161.94;;;8.42;98.74
84143;BME280;74260;50.772;7.730;2023-11-21T00:03:54;98174.78;;;8.42;98.65
84143;BME280;74260;50.772;7.730;2023-11-21T00:04:25;98174.78;;;8.42;98.66
84143;BME280;74260;50.772;7.730;2023-11-21T00:04:58;98181.50;;;8.40;98.32
84143;BME280;74260;50.772;7.730;2023-11-21T00:05:28;98180.59;;;8.40;98.53
84143;BME280;74260;50.772;7.730;2023-11-21T00:05:58;98174.31;;;8.36;98.49
84143;BME280;74260;50.772;7.730;2023-11-21T00:06:29;98176.38;;;8.40;98.79
84143;BME280;74260;50.772;7.730;2023-11-21T00:07:00;98184.19;;;8.42;98.69
84143;BME280;74260;50.772;7.730;2023-11-21T00:07:30;98178.25;;;8.43;98.75
84143;BME280;74260;50.772;7.730;2023-11-21T00:08:01;98179.69;;;8.39;98.77
84143;BME280;74260;50.772;7.730;2023-11-21T00:08:31;98177.22;;;8.41;98.71
84143;BME280;74260;50.772;7.730;2023-11-21T00:09:01;98186.88;;;8.43;98.98
84143;BME280;74260;50.772;7.730;2023-11-21T00:09:32;98181.75;;;8.43;98.68
84143;BME280;74260;50.772;7.730;2023-11-21T00:10:03;98185.34;;;8.45;98.96
84143;BME280;74260;50.772;7.730;2023-11-21T00:10:35;98188.94;;;8.47;99.30
84143;BME280;74260;50.772;7.730;2023-11-21T00:11:05;98183.78;;;8.47;98.98
84143;BME280;74260;50.772;7.730;2023-11-21T00:11:36;98191.09;;;8.43;98.82
84143;BME280;74260;50.772;7.730;2023-11-21T00:12:08;98185.06;;;8.42;98.67
84143;BME280;74260;50.772;7.730;2023-11-21T00:12:42;98186.88;;;8.43;98.65
84143;BME280;74260;50.772;7.730;2023-11-21T00:13:12;98180.81;;;8.43;99.04
84143;BME280;74260;50.772;7.730;2023-11-21T00:13:43;98187.13;;;8.46;99.12
84143;BME280;74260;50.772;7.730;2023-11-21T00:14:14;98180.44;;;8.48;98.87
84143;BME280;74260;50.772;7.730;2023-11-21T00:14:45;98186.59;;;8.50;98.80
84143;BME280;74260;50.772;7.730;2023-11-21T00:15:15;98187.63;;;8.52;98.90
84143;BME280;74260;50.772;7.730;2023-11-21T00:15:46;98197.91;;;8.52;99.13
84143;BME280;74260;50.772;7.730;2023-11-21T00:16:16;98192.78;;;8.52;98.87
84143;BME280;74260;50.772;7.730;2023-11-21T00:16:46;98184.28;;;8.53;99.32
84143;BME280;74260;50.772;7.730;2023-11-21T00:17:17;98186.72;;;8.52;98.86
84143;BME280;74260;50.772;7.730;2023-11-21T00:17:47;98188.03;;;8.47;98.31
84143;BME280;74260;50.772;7.730;2023-11-21T00:18:17;98183.78;;;8.47;98.47
84143;BME280;74260;50.772;7.730;2023-11-21T00:18:48;98188.94;;;8.47;98.69
84143;BME280;74260;50.772;7.730;2023-11-21T00:19:18;98193.16;;;8.47;98.39
84143;BME280;74260;50.772;7.730;2023-11-21T00:19:48;98190.97;;;8.51;98.79
84143;BME280;74260;50.772;7.730;2023-11-21T00:20:19;98190.72;;;8.48;98.57
84143;BME280;74260;50.772;7.730;2023-11-21T00:20:51;98183.78;;;8.47;98.04
84143;BME280;74260;50.772;7.730;2023-11-21T00:21:21;98188.03;;;8.47;98.45
84143;BME280;74260;50.772;7.730;2023-11-21T00:21:51;98193.91;;;8.46;98.33
84143;BME280;74260;50.772;7.730;2023-11-21T00:22:22;98187.00;;;8.45;98.57
84143;BME280;74260;50.772;7.730;2023-11-21T00:22:52;98189.56;;;8.45;98.54
84143;BME280;74260;50.772;7.730;2023-11-21T00:23:22;98186.88;;;8.43;98.27
84143;BME280;74260;50.772;7.730;2023-11-21T00:23:53;98192.00;;;8.43;98.46
84143;BME280;74260;50.772;7.730;2023-11-21T00:24:24;98192.00;;;8.43;98.37
84143;BME280;74260;50.772;7.730;2023-11-21T00:24:54;98188.16;;;8.48;98.77
84143;BME280;74260;50.772;7.730;2023-11-21T00:25:25;98192.78;;;8.52;98.61
84143;BME280;74260;50.772;7.730;2023-11-21T00:25:55;98189.28;;;8.52;98.51
84143;BME280;74260;50.772;7.730;2023-11-21T00:26:26;98192.09;;;8.55;98.72
84143;BME280;74260;50.772;7.730;2023-11-21T00:26:56;98188.63;;;8.54;98.72
84143;BME280;74260;50.772;7.730;2023-11-21T00:27:26;98189.66;;;8.56;98.79
84143;BME280;74260;50.772;7.730;2023-11-21T00:27:58;98191.47;;;8.57;98.76
84143;BME280;74260;50.772;7.730;2023-11-21T00:28:28;98191.47;;;8.57;98.68
84143;BME280;74260;50.772;7.730;2023-11-21T00:28:58;98195.06;;;8.59;98.71
84143;BME280;74260;50.772;7.730;2023-11-21T00:29:29;98196.50;;;8.56;98.44
84143;BME280;74260;50.772;7.730;2023-11-21T00:29:59;98193.00;;;8.55;98.59
84143;BME280;74260;50.772;7.730;2023-11-21T00:30:30;98195.59;;;8.55;98.81
84143;BME280;74260;50.772;7.730;2023-11-21T00:31:01;98199.56;;;8.52;98.39
84143;BME280;74260;50.772;7.730;2023-11-21T00:31:31;98198.03;;;8.54;98.26
84143;BME280;74260;50.772;7.730;2023-11-21T00:32:01;98205.97;;;8.57;98.57
84143;BME280;74260;50.772;7.730;2023-11-21T00:32:35;98202.50;;;8.56;98.64
84143;BME280;74260;50.772;7.730;2023-11-21T00:33:05;98199.94;;;8.56;98.57
84143;BME280;74260;50.772;7.730;2023-11-21T00:33:35;98205.72;;;8.54;98.21
84143;BME280;74260;50.772;7.730;2023-11-21T00:34:06;98196.34;;;8.44;98.23
84143;BME280;74260;50.772;7.730;2023-11-21T00:34:36;98200.75;;;8.45;98.13
84143;BME280;74260;50.772;7.730;2023-11-21T00:35:06;98197.38;;;8.46;98.26
84143;BME280;74260;50.772;7.730;2023-11-21T00:35:37;98202.03;;;8.40;97.79
84143;BME280;74260;50.772;7.730;2023-11-21T00:36:08;98202.28;;;8.33;97.96
84143;BME280;74260;50.772;7.730;2023-11-21T00:36:40;98200.75;;;8.25;97.99
84143;BME280;74260;50.772;7.730;2023-11-21T00:37:10;98199.19;;;8.27;98.53
84143;BME280;74260;50.772;7.730;2023-11-21T00:37:40;98198.28;;;8.27;98.10
84143;BME280;74260;50.772;7.730;2023-11-21T00:38:11;98195.47;;;8.24;98.18
84143;BME280;74260;50.772;7.730;2023-11-21T00:38:41;98202.53;;;8.16;98.47
84143;BME280;74260;50.772;7.730;2023-11-21T00:39:11;98206.50;;;8.12;98.63
84143;BME280;74260;50.772;7.730;2023-11-21T00:39:42;98206.63;;;8.14;98.82
84143;BME280;74260;50.772;7.730;2023-11-21T00:40:12;98199.97;;;8.16;98.77
84143;BME280;74260;50.772;7.730;2023-11-21T00:40:44;98205.34;;;8.19;99.05
84143;BME280;74260;50.772;7.730;2023-11-21T00:41:14;98202.00;;;8.20;99.04
84143;BME280;74260;50.772;7.730;2023-11-21T00:41:46;98204.09;;;8.24;99.21
84143;BME280;74260;50.772;7.730;2023-11-21T00:42:16;98207.69;;;8.26;99.30
84143;BME280;74260;50.772;7.730;2023-11-21T00:42:47;98206.16;;;8.28;99.02
84143;BME280;74260;50.772;7.730;2023-11-21T00:43:18;98203.72;;;8.30;99.50
84143;BME280;74260;50.772;7.730;2023-11-21T00:43:48;98205.00;;;8.25;98.89
84143;BME280;74260;50.772;7.730;2023-11-21T00:44:18;98210.72;;;8.22;98.94
84143;BME280;74260;50.772;7.730;2023-11-21T00:44:49;98204.09;;;8.24;98.92
84143;BME280;74260;50.772;7.730;2023-11-21T00:45:19;98204.84;;;8.23;99.00
84143;BME280;74260;50.772;7.730;2023-11-21T00:45:50;98207.41;;;8.23;99.00
84143;BME280;74260;50.772;7.730;2023-11-21T00:46:21;98208.03;;;8.20;99.21
84143;BME280;74260;50.772;7.730;2023-11-21T00:46:51;98209.97;;;8.23;98.82
84143;BME280;74260;50.772;7.730;2023-11-21T00:47:22;98207.41;;;8.23;98.84
84143;BME280;74260;50.772;7.730;2023-11-21T00:47:52;98207.13;;;8.20;98.54
84143;BME280;74260;50.772;7.730;2023-11-21T00:48:23;98206.25;;;8.19;98.47
84143;BME280;74260;50.772;7.730;2023-11-21T00:48:53;98207.13;;;8.20;98.93
84143;BME280;74260;50.772;7.730;2023-11-21T00:49:24;98204.84;;;8.23;98.92
84143;BME280;74260;50.772;7.730;2023-11-21T00:49:54;98207.41;;;8.23;98.69
84143;BME280;74260;50.772;7.730;2023-11-21T00:50:24;98201.25;;;8.21;98.68
84143;BME280;74260;50.772;7.730;2023-11-21T00:50:55;98211.78;;;8.24;98.88
84143;BME280;74260;50.772;7.730;2023-11-21T00:51:26;98209.34;;;8.26;99.03
84143;BME280;74260;50.772;7.730;2023-11-21T00:51:56;98211.00;;;8.25;99.14
84143;BME280;74260;50.772;7.730;2023-11-21T00:52:28;98205.00;;;8.25;99.10
84143;BME280;74260;50.772;7.730;2023-11-21T00:52:58;98215.50;;;8.28;99.17
84143;BME280;74260;50.772;7.730;2023-11-21T00:53:28;98207.81;;;8.28;99.28
84143;BME280;74260;50.772;7.730;2023-11-21T00:53:59;98213.03;;;8.19;98.48
84143;BME280;74260;50.772;7.730;2023-11-21T00:54:30;98217.16;;;8.17;98.58
84143;BME280;74260;50.772;7.730;2023-11-21T00:55:00;98213.81;;;8.18;98.66
84143;BME280;74260;50.772;7.730;2023-11-21T00:55:31;98208.66;;;8.18;98.97
84143;BME280;74260;50.772;7.730;2023-11-21T00:56:02;98210.47;;;8.19;98.98
84143;BME280;74260;50.772;7.730;2023-11-21T00:56:32;98211.22;;;8.18;98.92
84143;BME280;74260;50.772;7.730;2023-11-21T00:57:04;98210.47;;;8.19;98.97
84143;BME280;74260;50.772;7.730;2023-11-21T00:57:35;98213.16;;;8.20;99.18
84143;BME280;74260;50.772;7.730;2023-11-21T00:58:06;98212.38;;;8.21;99.00
84143;BME280;74260;50.772;7.730;2023-11-21T00:58:36;98212.94;;;8.17;98.74
84143;BME280;74260;50.772;7.730;2023-11-21T00:59:07;98216.25;;;8.16;98.54
84143;BME280;74260;50.772;7.730;2023-11-21T00:59:37;98223.56;;;8.12;98.35
84143;BME280;74260;50.772;7.730;2023-11-21T01:00:08;98217.28;;;8.08;98.26
84143;BME280;74260;50.772;7.730;2023-11-21T01:00:47;98218.31;;;8.10;98.57
84143;BME280;74260;50.772;7.730;2023-11-21T01:01:19;98222.91;;;8.14;99.01
84143;BME280;74260;50.772;7.730;2023-11-21T01:01:50;98223.81;;;8.15;98.73
84143;BME280;74260;50.772;7.730;2023-11-21T01:02:20;98223.81;;;8.15;98.82
84143;BME280;74260;50.772;7.730;2023-11-21T01:02:50;98221.50;;;8.18;98.87
84143;BME280;74260;50.772;7.730;2023-11-21T01:03:21;98225.88;;;8.19;98.89
84143;BME280;74260;50.772;7.730;2023-11-21T01:03:52;98222.28;;;8.17;98.74
84143;BME280;74260;50.772;7.730;2023-11-21T01:04:22;98226.78;;;8.19;98.68
84143;BME280;74260;50.772;7.730;2023-11-21T01:04:53;98225.88;;;8.19;98.81
84143;BME280;74260;50.772;7.730;2023-11-21T01:05:24;98228.19;;;8.16;98.67
84143;BME280;74260;50.772;7.730;2023-11-21T01:05:55;98225.34;;;8.13;98.16
84143;BME280;74260;50.772;7.730;2023-11-21T01:06:25;98224.06;;;8.08;98.01
84143;BME280;74260;50.772;7.730;2023-11-21T01:06:56;98227.78;;;8.01;98.10
84143;BME280;74260;50.772;7.730;2023-11-21T01:07:26;98228.94;;;7.95;98.02
84143;BME280;74260;50.772;7.730;2023-11-21T01:07:57;98232.25;;;7.94;98.44
84143;BME280;74260;50.772;7.730;2023-11-21T01:08:27;98231.09;;;7.90;98.08
84143;BME280;74260;50.772;7.730;2023-11-21T01:08:58;98226.25;;;7.83;98.20
84143;BME280;74260;50.772;7.730;2023-11-21T01:09:29;98227.66;;;7.80;98.58
84143;BME280;74260;50.772;7.730;2023-11-21T01:10:00;98233.66;;;7.80;98.71
84143;BME280;74260;50.772;7.730;2023-11-21T01:10:30;98226.25;;;7.83;98.97
84143;BME280;74260;50.772;7.730;2023-11-21T01:11:01;98232.38;;;7.85;99.08
84143;BME280;74260;50.772;7.730;2023-11-21T01:11:31;98229.19;;;7.88;99.41
84143;BME280;74260;50.772;7.730;2023-11-21T01:12:03;98234.44;;;7.89;99.42
84143;BME280;74260;50.772;7.730;2023-11-21T01:12:38;98228.81;;;7.83;98.81
84143;BME280;74260;50.772;7.730;2023-11-21T01:13:08;98231.50;;;7.85;98.89
84143;BME280;74260;50.772;7.730;2023-11-21T01:13:39;98233.03;;;7.83;98.78
84143;BME280;74260;50.772;7.730;2023-11-21T01:14:09;98232.13;;;7.82;98.66
84143;BME280;74260;50.772;7.730;2023-11-21T01:14:40;98239.09;;;7.83;98.89
84143;BME280;74260;50.772;7.730;2023-11-21T01:15:11;98234.81;;;7.84;99.28
84143;BME280;74260;50.772;7.730;2023-11-21T01:15:42;98232.78;;;7.80;98.88
84143;BME280;74260;50.772;7.730;2023-11-21T01:16:12;98237.91;;;7.80;98.73
84143;BME280;74260;50.772;7.730;2023-11-21T01:16:45;98233.03;;;7.83;98.84
84143;BME280;74260;50.772;7.730;2023-11-21T01:17:16;98231.38;;;7.83;98.99
84143;BME280;74260;50.772;7.730;2023-11-21T01:17:49;98235.97;;;7.87;99.13
84143;BME280;74260;50.772;7.730;2023-11-21T01:18:20;98235.38;;;7.90;99.50
84143;BME280;74260;50.772;7.730;2023-11-21T01:18:50;98238.06;;;7.91;99.44
84143;BME280;74260;50.772;7.730;2023-11-21T01:19:21;98238.06;;;7.91;99.05
84143;BME280;74260;50.772;7.730;2023-11-21T01:19:51;98238.97;;;7.92;99.18
84143;BME280;74260;50.772;7.730;2023-11-21T01:20:22;98238.31;;;7.94;99.25
84143;BME280;74260;50.772;7.730;2023-11-21T01:20:52;98236.09;;;7.89;98.36
84143;BME280;74260;50.772;7.730;2023-11-21T01:21:25;98234.44;;;7.79;98.05
84143;BME280;74260;50.772;7.730;2023-11-21T01:21:56;98230.47;;;7.73;98.18
84143;BME280;74260;50.772;7.730;2023-11-21T01:22:28;98234.69;;;7.72;98.21
84143;BME280;74260;50.772;7.730;2023-11-21T01:22:58;98233.78;;;7.72;98.87
84143;BME280;74260;50.772;7.730;2023-11-21T01:23:28;98230.19;;;7.70;98.53
84143;BME280;74260;50.772;7.730;2023-11-21T01:23:59;98239.28;;;7.66;98.82
84143;BME280;74260;50.772;7.730;2023-11-21T01:24:30;98228.88;;;7.65;98.79
84143;BME280;74260;50.772;7.730;2023-11-21T01:25:00;98229.66;;;7.64;98.61
84143;BME280;74260;50.772;7.730;2023-11-21T01:25:30;98228.41;;;7.69;98.72
84143;BME280;74260;50.772;7.730;2023-11-21T01:26:01;98237.13;;;7.71;98.89
84143;BME280;74260;50.772;7.730;2023-11-21T01:26:31;98231.34;;;7.73;99.36
84143;BME280;74260;50.772;7.730;2023-11-21T01:27:01;98232.25;;;7.74;99.28
84143;BME280;74260;50.772;7.730;2023-11-21T01:27:32;98235.84;;;7.76;99.58
84143;BME280;74260;50.772;7.730;2023-11-21T01:28:02;98235.06;;;7.77;99.30
84143;BME280;74260;50.772;7.730;2023-11-21T01:28:33;98230.97;;;7.79;99.47
84143;BME280;74260;50.772;7.730;2023-11-21T01:29:03;98237.00;;;7.79;99.56
84143;BME280;74260;50.772;7.730;2023-11-21T01:29:34;98227.66;;;7.80;99.40
84143;BME280;74260;50.772;7.730;2023-11-21T01:30:06;98233.78;;;7.82;99.49
84143;BME280;74260;50.772;7.730;2023-11-21T01:30:37;98239.09;;;7.83;99.53
84143;BME280;74260;50.772;7.730;2023-11-21T01:31:08;98239.09;;;7.83;99.05
84143;BME280;74260;50.772;7.730;2023-11-21T01:31:39;98242.75;;;7.77;98.54
84143;BME280;74260;50.772;7.730;2023-11-21T01:32:09;98244.94;;;7.72;98.68
84143;BME280;74260;50.772;7.730;2023-11-21T01:32:40;98243.91;;;7.70;98.59
84143;BME280;74260;50.772;7.730;2023-11-21T01:33:10;98245.56;;;7.70;98.71
84143;BME280;74260;50.772;7.730;2023-11-21T01:33:41;98246.47;;;7.70;98.83
84143;BME280;74260;50.772;7.730;2023-11-21T01:34:11;98243.78;;;7.69;99.08
84143;BME280;74260;50.772;7.730;2023-11-21T01:34:41;98252.50;;;7.71;98.63
84143;BME280;74260;50.772;7.730;2023-11-21T01:35:13;98244.03;;;7.72;99.24
84143;BME280;74260;50.772;7.730;2023-11-21T01:35:44;98250.06;;;7.72;99.00
84143;BME280;74260;50.772;7.730;2023-11-21T01:36:16;98252.75;;;7.74;99.50
84143;BME280;74260;50.772;7.730;2023-11-21T01:36:46;98251.13;;;7.74;99.36
84143;BME280;74260;50.772;7.730;2023-11-21T01:37:17;98257.91;;;7.74;99.06
84143;BME280;74260;50.772;7.730;2023-11-21T01:37:47;98255.47;;;7.75;99.02
84143;BME280;74260;50.772;7.730;2023-11-21T01:38:18;98255.72;;;7.78;99.24
84143;BME280;74260;50.772;7.730;2023-11-21T01:38:49;98256.63;;;7.79;99.34
84143;BME280;74260;50.772;7.730;2023-11-21T01:39:19;98252.28;;;7.78;99.22
84143;BME280;74260;50.772;7.730;2023-11-21T01:39:54;98251.25;;;7.76;99.08
84143;BME280;74260;50.772;7.730;2023-11-21T01:40:25;98253.94;;;7.77;99.01
84143;BME280;74260;50.772;7.730;2023-11-21T01:40:55;98252.41;;;7.79;99.29
84143;BME280;74260;50.772;7.730;2023-11-21T01:41:28;98256.00;;;7.81;99.18
84143;BME280;74260;50.772;7.730;2023-11-21T01:41:59;98249.06;;;7.80;99.45
84143;BME280;74260;50.772;7.730;2023-11-21T01:42:29;98253.81;;;7.86;99.67
84143;BME280;74260;50.772;7.730;2023-11-21T01:43:00;98254.84;;;7.88;99.41
84143;BME280;74260;50.772;7.730;2023-11-21T01:43:30;98250.47;;;7.87;99.03
84143;BME280;74260;50.772;7.730;2023-11-21T01:44:01;98253.81;;;7.86;99.22
84143;BME280;74260;50.772;7.730;2023-11-21T01:44:32;98261.00;;;7.90;99.24
84143;BME280;74260;50.772;7.730;2023-11-21T01:45:03;98261.13;;;7.91;99.44
84143;BME280;74260;50.772;7.730;2023-11-21T01:45:35;98266.41;;;7.93;99.30
84143;BME280;74260;50.772;7.730;2023-11-21T01:46:05;98258.56;;;7.91;99.11
84143;BME280;74260;50.772;7.730;2023-11-21T01:46:36;98261.25;;;7.93;99.48
84143;BME280;74260;50.772;7.730;2023-11-21T01:47:09;98262.06;;;7.92;99.30
84143;BME280;74260;50.772;7.730;2023-11-21T01:47:40;98256.38;;;7.86;98.52
84143;BME280;74260;50.772;7.730;2023-11-21T01:48:12;98260.47;;;7.84;98.27
84143;BME280;74260;50.772;7.730;2023-11-21T01:48:43;98256.88;;;7.82;98.78
84143;BME280;74260;50.772;7.730;2023-11-21T01:49:15;98260.47;;;7.84;98.48
84143;BME280;74260;50.772;7.730;2023-11-21T01:49:46;98256.25;;;7.84;98.60
84143;BME280;74260;50.772;7.730;2023-11-21T01:50:17;98266.75;;;7.87;98.90
84143;BME280;74260;50.772;7.730;2023-11-21T01:50:48;98258.31;;;7.88;99.34
84143;BME280;74260;50.772;7.730;2023-11-21T01:51:19;98258.44;;;7.90;98.98
84143;BME280;74260;50.772;7.730;2023-11-21T01:51:50;98259.47;;;7.92;98.94
84143;BME280;74260;50.772;7.730;2023-11-21T01:52:21;98257.66;;;7.91;99.47
84143;BME280;74260;50.772;7.730;2023-11-21T01:52:52;98252.78;;;7.94;99.19
84143;BME280;74260;50.772;7.730;2023-11-21T01:53:24;98262.81;;;7.91;98.68
84143;BME280;74260;50.772;7.730;2023-11-21T01:53:56;98254.06;;;7.89;98.35
84143;BME280;74260;50.772;7.730;2023-11-21T01:54:26;98254.06;;;7.89;98.47
84143;BME280;74260;50.772;7.730;2023-11-21T01:54:58;98255.88;;;7.90;98.94
84143;BME280;74260;50.772;7.730;2023-11-21T01:55:29;98254.06;;;7.89;98.63
84143;BME280;74260;50.772;7.730;2023-11-21T01:56:00;98257.41;;;7.88;98.56
84143;BME280;74260;50.772;7.730;2023-11-21T01:56:31;98254.72;;;7.86;98.57
84143;BME280;74260;50.772;7.730;2023-11-21T01:57:03;98255.72;;;7.78;97.82
84143;BME280;74260;50.772;7.730;2023-11-21T01:57:37;98256.38;;;7.76;98.14
84143;BME280;74260;50.772;7.730;2023-11-21T01:58:08;98260.72;;;7.77;98.20
84143;BME280;74260;50.772;7.730;2023-11-21T01:58:39;98268.03;;;7.72;97.91
84143;BME280;74260;50.772;7.730;2023-11-21T01:59:10;98259.56;;;7.73;98.35
84143;BME280;74260;50.772;7.730;2023-11-21T01:59:42;98257.13;;;7.75;98.63
84143;BME280;74260;50.772;7.730;2023-11-21T02:00:14;98256.50;;;7.77;98.54
84143;BME280;74260;50.772;7.730;2023-11-21T02:00:49;98259.19;;;7.79;98.65
84143;BME280;74260;50.772;7.730;2023-11-21T02:01:21;98260.22;;;7.81;99.07
84143;BME280;74260;50.772;7.730;2023-11-21T02:01:51;98264.56;;;7.82;98.91
84143;BME280;74260;50.772;7.730;2023-11-21T02:02:22;98254.31;;;7.82;99.10
84143;BME280;74260;50.772;7.730;2023-11-21T02:02:52;98260.47;;;7.84;99.30
84143;BME280;74260;50.772;7.730;2023-11-21T02:03:22;98251.75;;;7.82;99.03
84143;BME280;74260;50.772;7.730;2023-11-21T02:03:53;98251.00;;;7.83;99.09
84143;BME280;74260;50.772;7.730;2023-11-21T02:04:23;98255.34;;;7.84;98.89
84143;BME280;74260;50.772;7.730;2023-11-21T02:04:53;98258.69;;;7.83;98.80
84143;BME280;74260;50.772;7.730;2023-11-21T02:05:24;98256.88;;;7.82;98.99
84143;BME280;74260;50.772;7.730;2023-11-21T02:05:55;98256.13;;;7.83;99.07
84143;BME280;74260;50.772;7.730;2023-11-21T02:06:25;98256.13;;;7.83;99.03
84143;BME280;74260;50.772;7.730;2023-11-21T02:06:56;98257.16;;;7.85;98.98
84143;BME280;74260;50.772;7.730;2023-11-21T02:07:26;98257.16;;;7.85;98.92
84143;BME280;74260;50.772;7.730;2023-11-21T02:07:56;98255.47;;;7.85;99.01
84143;BME280;74260;50.772;7.730;2023-11-21T02:08:27;98258.94;;;7.86;99.31
84143;BME280;74260;50.772;7.730;2023-11-21T02:08:57;98261.38;;;7.84;98.74
84143;BME280;74260;50.772;7.730;2023-11-21T02:09:28;98262.28;;;7.85;99.05
84143;BME280;74260;50.772;7.730;2023-11-21T02:10:03;98257.16;;;7.85;98.74
84143;BME280;74260;50.772;7.730;2023-11-21T02:10:34;98265.84;;;7.87;99.09
84143;BME280;74260;50.772;7.730;2023-11-21T02:11:07;98259.97;;;7.88;98.92
84143;BME280;74260;50.772;7.730;2023-11-21T02:11:37;98263.28;;;7.87;98.97
84143;BME280;74260;50.772;7.730;2023-11-21T02:12:09;98258.44;;;7.80;98.29
84143;BME280;74260;50.772;7.730;2023-11-21T02:12:42;98266.88;;;7.79;98.87
84143;BME280;74260;50.772;7.730;2023-11-21T02:13:13;98274.19;;;7.74;98.58
84143;BME280;74260;50.772;7.730;2023-11-21T02:13:43;98265.59;;;7.74;98.49
84143;BME280;74260;50.772;7.730;2023-11-21T02:14:14;98273.03;;;7.71;98.65
84143;BME280;74260;50.772;7.730;2023-11-21T02:14:44;98275.59;;;7.71;98.87
84143;BME280;74260;50.772;7.730;2023-11-21T02:15:15;98272.00;;;7.69;98.81
84143;BME280;74260;50.772;7.730;2023-11-21T02:15:46;98275.19;;;7.66;98.65
84143;BME280;74260;50.772;7.730;2023-11-21T02:16:20;98276.44;;;7.61;98.49
84143;BME280;74260;50.772;7.730;2023-11-21T02:16:52;98273.75;;;7.60;98.32
84143;BME280;74260;50.772;7.730;2023-11-21T02:17:23;98273.75;;;7.60;98.49
84143;BME280;74260;50.772;7.730;2023-11-21T02:17:54;98274.41;;;7.57;98.76
84143;BME280;74260;50.772;7.730;2023-11-21T02:18:25;98273.97;;;7.53;98.70
84143;BME280;74260;50.772;7.730;2023-11-21T02:18:59;98281.28;;;7.48;98.53
84143;BME280;74260;50.772;7.730;2023-11-21T02:19:29;98280.13;;;7.45;98.89
84143;BME280;74260;50.772;7.730;2023-11-21T02:20:00;98278.81;;;7.40;98.67
84143;BME280;74260;50.772;7.730;2023-11-21T02:20:30;98283.94;;;7.40;98.60
84143;BME280;74260;50.772;7.730;2023-11-21T02:21:04;98274.06;;;7.34;98.75
84143;BME280;74260;50.772;7.730;2023-11-21T02:21:34;98276.09;;;7.28;98.87
84143;BME280;74260;50.772;7.730;2023-11-21T02:22:07;98284.41;;;7.26;99.06
84143;BME280;74260;50.772;7.730;2023-11-21T02:22:39;98282.44;;;7.23;99.26
84143;BME280;74260;50.772;7.730;2023-11-21T02:23:10;98279.75;;;7.22;99.37
84143;BME280;74260;50.772;7.730;2023-11-21T02:23:41;98281.56;;;7.23;99.40
84143;BME280;74260;50.772;7.730;2023-11-21T02:24:14;98284.41;;;7.26;99.42
84143;BME280;74260;50.772;7.730;2023-11-21T02:24:45;98278.22;;;7.24;99.29
84143;BME280;74260;50.772;7.730;2023-11-21T02:25:17;98276.72;;;7.26;99.93
84143;BME280;74260;50.772;7.730;2023-11-21T02:25:49;98275.81;;;7.25;99.62
84143;BME280;74260;50.772;7.730;2023-11-21T02:26:19;98277.75;;;7.28;99.74
84143;BME280;74260;50.772;7.730;2023-11-21T02:26:50;98285.31;;;7.26;99.44
84143;BME280;74260;50.772;7.730;2023-11-21T02:27:21;98277.75;;;7.28;99.38
84143;BME280;74260;50.772;7.730;2023-11-21T02:27:57;98279.66;;;7.30;99.53
84143;BME280;74260;50.772;7.730;2023-11-21T02:28:28;98275.44;;;7.31;99.88
84143;BME280;74260;50.772;7.730;2023-11-21T02:28:59;98276.22;;;7.30;99.17
84143;BME280;74260;50.772;7.730;2023-11-21T02:29:29;98279.53;;;7.29;99.23
84143;BME280;74260;50.772;7.730;2023-11-21T02:30:00;98285.44;;;7.28;99.32
84143;BME280;74260;50.772;7.730;2023-11-21T02:30:31;98282.88;;;7.28;99.88
84143;BME280;74260;50.772;7.730;2023-11-21T02:31:05;98274.41;;;7.29;99.27
84143;BME280;74260;50.772;7.730;2023-11-21T02:31:35;98281.34;;;7.30;99.30
84143;BME280;74260;50.772;7.730;2023-11-21T02:32:06;98275.44;;;7.31;99.31
84143;BME280;74260;50.772;7.730;2023-11-21T02:32:36;98276.50;;;7.33;99.65
84143;BME280;74260;50.772;7.730;2023-11-21T02:33:06;98285.22;;;7.35;99.63
84143;BME280;74260;50.772;7.730;2023-11-21T02:33:38;98282.66;;;7.35;99.40
84143;BME280;74260;50.772;7.730;2023-11-21T02:34:08;98285.69;;;7.31;99.23
84143;BME280;74260;50.772;7.730;2023-11-21T02:34:39;98285.44;;;7.28;98.87
84143;BME280;74260;50.772;7.730;2023-11-21T02:35:09;98295.56;;;7.26;99.08
84143;BME280;74260;50.772;7.730;2023-11-21T02:35:39;98286.19;;;7.27;99.06
84143;BME280;74260;50.772;7.730;2023-11-21T02:36:10;98289.66;;;7.27;99.05
84143;BME280;74260;50.772;7.730;2023-11-21T02:36:40;98296.44;;;7.27;99.43
84143;BME280;74260;50.772;7.730;2023-11-21T02:37:12;98292.09;;;7.26;99.25
84143;BME280;74260;50.772;7.730;2023-11-21T02:37:43;98286.06;;;7.25;99.21
84143;BME280;74260;50.772;7.730;2023-11-21T02:38:13;98291.03;;;7.24;99.23
84143;BME280;74260;50.772;7.730;2023-11-21T02:38:44;98289.38;;;7.24;99.52
84143;BME280;74260;50.772;7.730;2023-11-21T02:39:14;98288.75;;;7.27;99.38
84143;BME280;74260;50.772;7.730;2023-11-21T02:39:44;98288.13;;;7.29;99.35
84143;BME280;74260;50.772;7.730;2023-11-21T02:40:15;98295.16;;;7.32;99.45
84143;BME280;74260;50.772;7.730;2023-11-21T02:40:50;98285.22;;;7.35;99.76
84143;BME280;74260;50.772;7.730;2023-11-21T02:41:20;98291.38;;;7.37;99.79
84143;BME280;74260;50.772;7.730;2023-11-21T02:41:51;98288.03;;;7.38;99.66
84143;BME280;74260;50.772;7.730;2023-11-21T02:42:21;98289.69;;;7.37;99.34
84143;BME280;74260;50.772;7.730;2023-11-21T02:42:52;98284.03;;;7.31;99.00
84143;BME280;74260;50.772;7.730;2023-11-21T02:43:22;98289.25;;;7.23;98.54
84143;BME280;74260;50.772;7.730;2023-11-21T02:43:52;98290.53;;;7.18;98.82
84143;BME280;74260;50.772;7.730;2023-11-21T02:44:23;98293.56;;;7.14;98.81
84143;BME280;74260;50.772;7.730;2023-11-21T02:44:53;98293.31;;;7.11;98.91
84143;BME280;74260;50.772;7.730;2023-11-21T02:45:23;98294.81;;;7.09;98.85
84143;BME280;74260;50.772;7.730;2023-11-21T02:45:54;98293.00;;;7.07;98.90